createdAt,value
2019-01-26T00:00:45.295Z,16.30
2019-01-26T00:03:16.753Z,16.50
2019-01-26T00:05:48.216Z,16.50
2019-01-26T00:08:19.717Z,16.50
2019-01-26T00:10:51.177Z,16.70
2019-01-26T00:13:24.207Z,16.60
2019-01-26T00:15:55.802Z,16.40
2019-01-26T00:18:27.328Z,16.40
2019-01-26T00:20:58.793Z,16.40
2019-01-26T00:23:30.518Z,16.80
2019-01-26T00:26:01.961Z,16.90
2019-01-26T00:28:33.482Z,17.30
2019-01-26T00:31:06.052Z,16.80
2019-01-26T00:33:37.560Z,17.00
2019-01-26T00:36:09.036Z,17.30
2019-01-26T00:38:40.500Z,17.10
2019-01-26T00:41:12.025Z,17.00
2019-01-26T00:43:44.533Z,17.60
2019-01-26T00:46:16.056Z,17.40
2019-01-26T00:48:47.496Z,17.30
2019-01-26T00:51:19.078Z,17.20
2019-01-26T00:53:50.524Z,17.10
2019-01-26T00:56:22.024Z,16.90
2019-01-26T00:58:53.498Z,17.10
2019-01-26T01:01:24.982Z,17.20
2019-01-26T01:03:56.439Z,17.00
2019-01-26T01:06:27.974Z,17.00
2019-01-26T01:09:01.271Z,17.10
2019-01-26T01:11:37.401Z,17.20
2019-01-26T01:14:08.918Z,17.00
2019-01-26T01:16:41.606Z,17.40
2019-01-26T01:19:13.110Z,17.20
2019-01-26T01:21:44.718Z,17.30
2019-01-26T01:24:16.244Z,17.00
2019-01-26T01:26:47.701Z,17.10
2019-01-26T01:29:19.206Z,17.10
2019-01-26T01:31:50.976Z,17.30
2019-01-26T01:34:22.498Z,17.10
2019-01-26T01:36:53.975Z,16.70
2019-01-26T01:39:25.519Z,16.60
2019-01-26T01:41:57.107Z,16.90
2019-01-26T01:44:28.552Z,16.40
2019-01-26T01:47:00.336Z,16.60
2019-01-26T01:49:31.823Z,16.20
2019-01-26T01:52:03.390Z,16.30
2019-01-26T01:54:34.992Z,16.60
2019-01-26T01:57:06.514Z,16.70
2019-01-26T01:59:38.202Z,16.50
2019-01-26T02:02:09.827Z,16.60
2019-01-26T02:04:41.268Z,16.50
2019-01-26T02:07:12.754Z,16.70
2019-01-26T02:09:44.195Z,16.70
2019-01-26T02:12:15.703Z,16.50
2019-01-26T02:14:47.188Z,16.40
2019-01-26T02:17:18.849Z,16.90
2019-01-26T02:19:50.274Z,16.90
2019-01-26T02:22:21.887Z,16.70
2019-01-26T02:24:53.333Z,16.80
2019-01-26T02:27:24.852Z,16.60
2019-01-26T02:29:56.596Z,16.70
2019-01-26T02:32:28.225Z,17.20
2019-01-26T02:34:59.704Z,17.40
2019-01-26T02:37:31.184Z,17.50
2019-01-26T02:40:02.680Z,17.80
2019-01-26T02:42:34.241Z,18.50
2019-01-26T02:45:06.100Z,19.20
2019-01-26T02:47:37.778Z,18.90
2019-01-26T02:50:12.985Z,19.40
2019-01-26T02:52:44.659Z,18.90
2019-01-26T02:55:16.186Z,18.90
2019-01-26T02:57:47.638Z,18.90
2019-01-26T03:00:22.284Z,19.40
2019-01-26T03:02:53.926Z,19.80
2019-01-26T03:05:25.449Z,19.60
2019-01-26T03:07:56.906Z,20.50
2019-01-26T03:10:28.349Z,21.10
2019-01-26T03:12:59.926Z,20.70
2019-01-26T03:15:31.376Z,20.20
2019-01-26T03:18:03.033Z,19.70
2019-01-26T03:20:34.455Z,19.70
2019-01-26T03:23:05.956Z,19.40
2019-01-26T03:25:37.437Z,20.20
2019-01-26T03:28:08.935Z,19.90
2019-01-26T03:30:40.392Z,20.00
2019-01-26T03:33:12.010Z,20.20
2019-01-26T03:35:43.488Z,20.40
2019-01-26T03:38:18.043Z,19.90
2019-01-26T03:40:49.480Z,19.80
2019-01-26T03:43:20.980Z,19.40
2019-01-26T03:45:52.449Z,18.60
2019-01-26T03:48:25.360Z,18.30
2019-01-26T03:50:56.816Z,18.90
2019-01-26T03:53:28.295Z,18.80
2019-01-26T03:55:59.777Z,18.10
2019-01-26T03:58:31.586Z,18.90
2019-01-26T04:01:03.038Z,18.30
2019-01-26T04:03:34.657Z,18.40
2019-01-26T04:06:06.133Z,19.00
2019-01-26T04:08:37.576Z,19.20
2019-01-26T04:11:09.038Z,19.00
2019-01-26T04:13:40.476Z,19.20
2019-01-26T04:16:12.062Z,19.00
2019-01-26T04:18:44.063Z,18.80
2019-01-26T04:21:15.597Z,19.30
2019-01-26T04:23:47.043Z,18.40
2019-01-26T04:26:18.511Z,18.10
2019-01-26T04:28:52.560Z,17.80
2019-01-26T04:31:26.740Z,18.30
2019-01-26T04:33:58.642Z,18.40
2019-01-26T04:36:30.093Z,18.50
2019-01-26T04:39:01.575Z,18.60
2019-01-26T04:41:33.596Z,19.10
2019-01-26T04:44:05.209Z,18.90
2019-01-26T04:46:36.752Z,18.40
2019-01-26T04:49:08.447Z,17.80
2019-01-26T04:51:39.927Z,18.10
2019-01-26T04:54:11.481Z,17.90
2019-01-26T04:56:45.947Z,17.80
2019-01-26T04:59:17.412Z,17.80
2019-01-26T05:01:48.862Z,17.60
2019-01-26T05:04:20.515Z,17.30
2019-01-26T05:06:52.040Z,17.40
2019-01-26T05:09:23.517Z,17.50
2019-01-26T05:11:54.964Z,17.00
2019-01-26T05:14:27.447Z,16.60
2019-01-26T05:16:58.929Z,16.30
2019-01-26T05:19:30.699Z,16.20
2019-01-26T05:22:02.157Z,16.10
2019-01-26T05:24:33.665Z,15.60
2019-01-26T05:27:05.087Z,15.50
2019-01-26T05:29:36.569Z,15.80
2019-01-26T05:32:08.019Z,15.70
2019-01-26T05:34:39.797Z,15.60
2019-01-26T05:37:14.034Z,15.70
2019-01-26T05:39:45.588Z,15.50
2019-01-26T05:42:17.072Z,15.40
2019-01-26T05:44:48.518Z,15.80
2019-01-26T05:47:20.022Z,15.60
2019-01-26T05:49:51.813Z,15.60
2019-01-26T05:52:23.305Z,15.90
2019-01-26T05:54:54.790Z,16.10
2019-01-26T05:57:26.293Z,15.90
2019-01-26T05:59:57.800Z,15.70
2019-01-26T06:02:29.357Z,15.40
2019-01-26T06:05:00.945Z,15.50
2019-01-26T06:07:32.456Z,15.20
2019-01-26T06:10:04.301Z,15.40
2019-01-26T06:12:35.789Z,15.20
2019-01-26T06:15:07.744Z,15.30
2019-01-26T06:17:39.246Z,15.50
2019-01-26T06:20:12.611Z,15.50
2019-01-26T06:22:44.077Z,15.40
2019-01-26T06:25:16.821Z,15.20
2019-01-26T06:27:48.322Z,15.20
2019-01-26T06:30:22.994Z,15.40
2019-01-26T06:32:54.458Z,15.60
2019-01-26T06:35:26.249Z,15.40
2019-01-26T06:37:57.760Z,15.20
2019-01-26T06:40:29.243Z,15.70
2019-01-26T06:43:00.785Z,16.10
2019-01-26T06:45:34.018Z,15.70
2019-01-26T06:48:05.611Z,15.70
2019-01-26T06:50:37.105Z,15.50
2019-01-26T06:53:11.441Z,15.50
2019-01-26T06:55:43.026Z,15.50
2019-01-26T06:58:14.540Z,15.40
2019-01-26T07:00:46.118Z,15.40
2019-01-26T07:03:17.726Z,15.30
2019-01-26T07:06:03.048Z,15.40
2019-01-26T07:08:34.536Z,15.50
2019-01-26T07:11:06.028Z,15.80
2019-01-26T07:13:37.518Z,16.20
2019-01-26T07:16:09.186Z,15.90
2019-01-26T07:18:42.767Z,15.50
2019-01-26T07:21:14.699Z,15.70
2019-01-26T07:23:46.307Z,15.60
2019-01-26T07:26:17.846Z,15.70
2019-01-26T07:28:49.432Z,15.50
2019-01-26T07:31:20.901Z,15.30
2019-01-26T07:33:52.532Z,15.20
2019-01-26T07:36:24.114Z,15.40
2019-01-26T07:38:56.691Z,15.20
2019-01-26T07:41:28.154Z,15.00
2019-01-26T07:43:59.681Z,15.30
2019-01-26T07:46:31.233Z,15.20
2019-01-26T07:49:02.805Z,15.20
2019-01-26T07:51:34.490Z,15.20
2019-01-26T07:54:08.519Z,15.40
2019-01-26T07:56:40.221Z,15.20
2019-01-26T07:59:11.745Z,15.30
2019-01-26T08:01:43.283Z,15.20
2019-01-26T08:04:14.845Z,15.20
2019-01-26T08:06:46.525Z,15.20
2019-01-26T08:09:18.035Z,15.10
2019-01-26T08:11:49.561Z,15.40
2019-01-26T08:14:21.141Z,15.40
2019-01-26T08:16:52.720Z,15.40
2019-01-26T08:19:24.247Z,15.50
2019-01-26T08:21:55.993Z,15.80
2019-01-26T08:24:27.542Z,15.80
2019-01-26T08:26:59.063Z,15.70
2019-01-26T08:29:30.543Z,15.70
2019-01-26T08:32:02.107Z,15.60
2019-01-26T08:34:33.879Z,15.50
2019-01-26T08:37:05.809Z,15.60
2019-01-26T08:39:37.267Z,15.40
2019-01-26T08:42:08.775Z,15.20
2019-01-26T08:44:40.278Z,15.20
2019-01-26T08:47:11.800Z,15.40
2019-01-26T08:49:43.301Z,15.50
2019-01-26T08:52:15.059Z,15.30
2019-01-26T08:54:46.581Z,15.30
2019-01-26T08:57:18.231Z,15.40
2019-01-26T08:59:49.769Z,15.40
2019-01-26T09:02:40.178Z,15.50
2019-01-26T09:05:13.414Z,15.60
2019-01-26T09:07:45.003Z,15.70
2019-01-26T09:10:16.478Z,15.20
2019-01-26T09:12:48.040Z,15.50
2019-01-26T09:15:19.598Z,16.10
2019-01-26T09:17:51.191Z,15.40
2019-01-26T09:20:22.664Z,15.30
2019-01-26T09:22:54.563Z,15.40
2019-01-26T09:25:26.097Z,15.20
2019-01-26T09:27:57.729Z,15.70
2019-01-26T09:30:29.219Z,15.40
2019-01-26T09:33:00.786Z,15.70
2019-01-26T09:35:32.386Z,15.60
2019-01-26T09:38:04.225Z,15.40
2019-01-26T09:40:35.705Z,15.30
2019-01-26T09:43:08.531Z,15.40
2019-01-26T09:45:40.323Z,15.60
2019-01-26T09:48:12.000Z,15.60
2019-01-26T09:50:43.526Z,15.70
2019-01-26T09:53:15.266Z,15.50
2019-01-26T09:55:47.002Z,15.90
2019-01-26T09:58:20.002Z,15.60
2019-01-26T10:00:51.875Z,15.50
2019-01-26T10:03:23.496Z,15.40
2019-01-26T10:05:55.040Z,15.30
2019-01-26T10:08:26.965Z,15.20
2019-01-26T10:10:58.567Z,15.00
2019-01-26T10:13:30.116Z,15.00
2019-01-26T10:16:01.897Z,14.90
2019-01-26T10:18:33.444Z,15.10
2019-01-26T10:21:05.102Z,15.10
2019-01-26T10:23:38.228Z,14.80
2019-01-26T10:26:09.676Z,14.70
2019-01-26T10:28:41.255Z,14.90
2019-01-26T10:31:13.154Z,14.60
2019-01-26T10:33:44.798Z,14.90
2019-01-26T10:36:35.200Z,15.00
2019-01-26T10:39:17.045Z,14.70
2019-01-26T10:42:07.540Z,15.00
2019-01-26T10:44:39.153Z,15.00
2019-01-26T10:47:10.673Z,15.00
2019-01-26T10:49:42.347Z,14.90
2019-01-26T10:52:13.928Z,15.00
2019-01-26T10:54:45.857Z,14.90
2019-01-26T10:57:17.500Z,14.90
2019-01-26T10:59:49.396Z,14.80
2019-01-26T11:02:20.954Z,15.00
2019-01-26T11:04:53.892Z,15.10
2019-01-26T11:07:25.429Z,15.40
2019-01-26T11:09:57.118Z,15.20
2019-01-26T11:12:28.655Z,15.00
2019-01-26T11:15:00.233Z,14.80
2019-01-26T11:17:31.769Z,15.50
2019-01-26T11:20:04.508Z,15.20
2019-01-26T11:22:35.979Z,14.70
2019-01-26T11:25:08.899Z,15.00
2019-01-26T11:27:40.591Z,14.70
2019-01-26T11:30:12.404Z,14.60
2019-01-26T11:32:44.002Z,14.30
2019-01-26T11:35:15.495Z,14.40
2019-01-26T11:37:47.015Z,14.50
2019-01-26T11:40:21.729Z,14.10
2019-01-26T11:42:54.293Z,14.20
2019-01-26T11:45:38.792Z,14.30
2019-01-26T11:48:17.891Z,13.90
2019-01-26T11:50:53.969Z,14.00
2019-01-26T11:53:25.706Z,14.50
2019-01-26T11:56:02.069Z,14.40
2019-01-26T11:58:33.588Z,14.50
2019-01-26T12:01:27.124Z,14.30
2019-01-26T12:04:11.699Z,14.10
2019-01-26T12:06:53.592Z,14.40
2019-01-26T12:09:25.141Z,14.70
2019-01-26T12:11:56.946Z,14.30
2019-01-26T12:14:28.603Z,14.40
2019-01-26T12:17:00.116Z,14.40
2019-01-26T12:19:31.603Z,14.30
2019-01-26T12:22:03.129Z,14.20
2019-01-26T12:24:34.692Z,14.30
2019-01-26T12:27:06.434Z,14.10
2019-01-26T12:29:37.986Z,14.40
2019-01-26T12:32:09.485Z,14.10
2019-01-26T12:34:41.063Z,14.40
2019-01-26T12:37:12.656Z,15.00
2019-01-26T12:39:44.248Z,15.30
2019-01-26T12:42:16.095Z,15.40
2019-01-26T12:44:49.317Z,15.40
2019-01-26T12:47:20.845Z,15.30
2019-01-26T12:49:53.416Z,15.20
2019-01-26T12:52:24.910Z,15.10
2019-01-26T12:54:56.451Z,15.00
2019-01-26T12:57:28.033Z,15.50
2019-01-26T12:59:59.575Z,15.70
2019-01-26T13:02:31.336Z,15.30
2019-01-26T13:05:02.849Z,15.50
2019-01-26T13:07:34.431Z,15.50
2019-01-26T13:10:11.492Z,15.40
2019-01-26T13:12:43.386Z,15.50
2019-01-26T13:15:15.370Z,15.30
2019-01-26T13:17:47.367Z,15.80
2019-01-26T13:20:18.828Z,16.30
2019-01-26T13:22:50.366Z,16.60
2019-01-26T13:25:22.374Z,16.40
2019-01-26T13:27:54.271Z,16.50
2019-01-26T13:30:25.869Z,16.60
2019-01-26T13:32:57.771Z,16.90
2019-01-26T13:35:29.430Z,16.90
2019-01-26T13:38:01.835Z,17.00
2019-01-26T13:40:34.469Z,16.80
2019-01-26T13:43:06.457Z,17.00
2019-01-26T13:45:38.117Z,17.00
2019-01-26T13:48:09.707Z,17.10
2019-01-26T13:50:41.272Z,17.20
2019-01-26T13:53:12.862Z,17.00
2019-01-26T13:55:44.381Z,17.20
2019-01-26T13:58:16.171Z,17.30
2019-01-26T14:00:47.985Z,17.30
2019-01-26T14:03:19.599Z,17.30
2019-01-26T14:05:51.168Z,17.30
2019-01-26T14:08:22.774Z,17.30
2019-01-26T14:10:54.288Z,17.30
2019-01-26T14:13:26.160Z,17.20
2019-01-26T14:15:57.805Z,17.00
2019-01-26T14:18:29.399Z,17.20
2019-01-26T14:21:00.926Z,17.20
2019-01-26T14:23:32.551Z,17.00
2019-01-26T14:26:05.657Z,16.90
2019-01-26T14:28:37.753Z,17.40
2019-01-26T14:31:10.188Z,17.50
2019-01-26T14:33:41.726Z,17.30
2019-01-26T14:36:13.387Z,17.30
2019-01-26T14:38:44.992Z,17.30
2019-01-26T14:41:16.554Z,17.40
2019-01-26T14:43:48.313Z,17.10
2019-01-26T14:46:19.880Z,17.00
2019-01-26T14:48:51.475Z,16.90
2019-01-26T14:51:23.208Z,17.10
2019-01-26T14:53:54.796Z,16.90
2019-01-26T14:56:26.362Z,17.10
2019-01-26T14:58:58.214Z,17.10
2019-01-26T15:01:29.846Z,17.00
2019-01-26T15:04:01.526Z,17.00
2019-01-26T15:06:33.186Z,17.10
2019-01-26T15:09:06.841Z,16.80
2019-01-26T15:11:38.439Z,16.80
2019-01-26T15:14:10.478Z,16.70
2019-01-26T15:16:42.037Z,16.80
2019-01-26T15:19:13.630Z,17.30
2019-01-26T15:21:45.206Z,16.70
2019-01-26T15:24:16.829Z,16.80
2019-01-26T15:26:48.475Z,16.70
2019-01-26T15:29:19.993Z,16.60
2019-01-26T15:31:51.623Z,16.50
2019-01-26T15:34:23.361Z,16.60
2019-01-26T15:36:55.140Z,16.60
2019-01-26T15:39:27.176Z,16.70
2019-01-26T15:41:58.797Z,16.70
2019-01-26T15:44:30.553Z,16.50
2019-01-26T15:47:02.139Z,16.60
2019-01-26T15:49:33.813Z,16.50
2019-01-26T15:52:05.714Z,16.60
2019-01-26T15:54:38.503Z,16.60
2019-01-26T15:57:10.044Z,16.70
2019-01-26T15:59:42.007Z,16.80
2019-01-26T16:02:13.709Z,16.70
2019-01-26T16:04:45.707Z,16.60
2019-01-26T16:07:17.369Z,16.60
2019-01-26T16:09:48.921Z,16.80
2019-01-26T16:12:20.641Z,16.80
2019-01-26T16:14:52.393Z,16.80
2019-01-26T16:17:23.912Z,16.80
2019-01-26T16:19:55.493Z,16.60
2019-01-26T16:22:27.093Z,16.60
2019-01-26T16:24:58.631Z,16.60
2019-01-26T16:27:30.551Z,16.70
2019-01-26T16:30:02.735Z,16.70
2019-01-26T16:32:35.441Z,16.50
2019-01-26T16:35:10.205Z,16.70
2019-01-26T16:37:41.729Z,16.60
2019-01-26T16:40:17.507Z,16.60
2019-01-26T16:42:48.998Z,16.60
2019-01-26T16:45:24.929Z,16.70
2019-01-26T16:47:56.513Z,16.70
2019-01-26T16:50:30.020Z,16.70
2019-01-26T16:53:01.522Z,16.60
2019-01-26T16:55:33.097Z,16.60
2019-01-26T16:58:04.900Z,17.00
2019-01-26T17:00:51.787Z,16.60
2019-01-26T17:03:23.307Z,16.70
2019-01-26T17:05:55.011Z,16.80
2019-01-26T17:08:26.760Z,16.90
2019-01-26T17:10:58.338Z,16.90
2019-01-26T17:13:29.917Z,16.80
2019-01-26T17:16:01.940Z,16.80
2019-01-26T17:18:33.519Z,17.30
2019-01-26T17:21:05.144Z,16.80
2019-01-26T17:23:36.686Z,16.70
2019-01-26T17:26:08.519Z,16.80
2019-01-26T17:28:40.123Z,16.70
2019-01-26T17:31:11.932Z,16.50
2019-01-26T17:33:43.504Z,16.50
2019-01-26T17:36:15.248Z,16.80
2019-01-26T17:38:46.868Z,16.70
2019-01-26T17:41:18.461Z,17.30
2019-01-26T17:43:50.179Z,16.70
2019-01-26T17:46:22.670Z,16.80
2019-01-26T17:48:54.150Z,16.80
2019-01-26T17:51:25.679Z,16.90
2019-01-26T17:53:57.260Z,16.80
2019-01-26T17:56:28.815Z,16.80
2019-01-26T17:59:00.774Z,16.70
2019-01-26T18:01:32.391Z,16.70
2019-01-26T18:04:04.262Z,16.70
2019-01-26T18:06:35.750Z,16.80
2019-01-26T18:09:09.172Z,16.80
2019-01-26T18:11:41.344Z,16.80
2019-01-26T18:14:12.970Z,16.80
2019-01-26T18:16:44.672Z,16.60
2019-01-26T18:19:17.454Z,16.60
2019-01-26T18:21:49.013Z,16.70
2019-01-26T18:24:20.666Z,16.70
2019-01-26T18:26:52.251Z,16.60
2019-01-26T18:29:23.934Z,16.70
2019-01-26T18:31:55.841Z,16.80
2019-01-26T18:34:27.548Z,16.80
2019-01-26T18:36:59.205Z,16.80
2019-01-26T18:39:31.468Z,16.90
2019-01-26T18:42:03.690Z,16.80
2019-01-26T18:44:36.223Z,16.90
2019-01-26T18:47:08.187Z,17.00
2019-01-26T18:49:39.924Z,16.90
2019-01-26T18:52:11.678Z,17.00
2019-01-26T18:54:44.655Z,17.10
2019-01-26T18:57:16.676Z,17.10
2019-01-26T18:59:48.263Z,17.10
2019-01-26T19:02:20.142Z,17.20
2019-01-26T19:04:59.044Z,17.20
2019-01-26T19:07:31.843Z,17.60
2019-01-26T19:10:03.600Z,18.00
2019-01-26T19:12:35.693Z,17.90
2019-01-26T19:15:10.540Z,18.20
2019-01-26T19:17:43.117Z,18.10
2019-01-26T19:20:15.328Z,17.80
2019-01-26T19:22:47.182Z,17.70
2019-01-26T19:25:21.300Z,17.50
2019-01-26T19:27:53.479Z,17.50
2019-01-26T19:30:25.598Z,17.30
2019-01-26T19:32:58.432Z,17.20
2019-01-26T19:35:30.102Z,17.10
2019-01-26T19:38:01.894Z,17.20
2019-01-26T19:40:34.558Z,17.00
2019-01-26T19:43:06.331Z,17.00
2019-01-26T19:45:37.931Z,17.10
2019-01-26T19:48:09.959Z,17.00
2019-01-26T19:50:41.811Z,17.00
2019-01-26T19:53:13.707Z,16.90
2019-01-26T19:55:45.576Z,16.90
2019-01-26T19:58:17.455Z,16.90
2019-01-26T20:00:49.291Z,17.00
2019-01-26T20:03:20.931Z,17.30
2019-01-26T20:05:52.607Z,17.30
2019-01-26T20:08:25.518Z,17.30
2019-01-26T20:10:57.249Z,17.40
2019-01-26T20:13:28.869Z,17.40
2019-01-26T20:16:00.433Z,17.30
2019-01-26T20:18:32.226Z,17.20
2019-01-26T20:21:03.818Z,17.20
2019-01-26T20:23:35.416Z,17.10
2019-01-26T20:26:07.061Z,17.00
2019-01-26T20:28:38.554Z,17.10
2019-01-26T20:31:10.045Z,17.20
2019-01-26T20:33:41.824Z,17.10
2019-01-26T20:36:13.313Z,17.00
2019-01-26T20:38:44.849Z,17.20
2019-01-26T20:41:16.439Z,17.30
2019-01-26T20:43:47.954Z,17.30
2019-01-26T20:46:19.575Z,17.30
2019-01-26T20:48:51.505Z,17.30
2019-01-26T20:51:24.983Z,17.40
2019-01-26T20:53:57.764Z,17.30
2019-01-26T20:56:29.292Z,17.30
2019-01-26T20:59:00.885Z,17.20
2019-01-26T21:01:32.501Z,17.20
2019-01-26T21:04:04.962Z,17.10
2019-01-26T21:06:36.897Z,17.30
2019-01-26T21:09:10.496Z,17.30
2019-01-26T21:11:42.184Z,17.50
2019-01-26T21:14:13.902Z,17.50
2019-01-26T21:16:45.600Z,17.40
2019-01-26T21:19:17.505Z,17.40
2019-01-26T21:21:49.203Z,17.30
2019-01-26T21:24:20.722Z,17.40
2019-01-26T21:26:52.244Z,17.30
2019-01-26T21:29:23.817Z,17.30
2019-01-26T21:31:55.441Z,17.30
2019-01-26T21:34:27.524Z,17.10
2019-01-26T21:36:59.763Z,17.10
2019-01-26T21:39:32.241Z,17.10
2019-01-26T21:42:04.153Z,16.80
2019-01-26T21:44:36.315Z,16.90
2019-01-26T21:47:08.773Z,17.30
2019-01-26T21:49:40.383Z,16.80
2019-01-26T21:52:13.287Z,16.50
2019-01-26T21:54:44.929Z,16.50
2019-01-26T21:57:16.568Z,16.40
2019-01-26T21:59:48.064Z,16.30
2019-01-26T22:02:19.700Z,16.30
2019-01-26T22:04:51.341Z,16.90
2019-01-26T22:07:22.879Z,16.40
2019-01-26T22:09:54.887Z,16.40
2019-01-26T22:12:26.794Z,16.40
2019-01-26T22:14:58.464Z,16.50
2019-01-26T22:17:30.142Z,16.60
2019-01-26T22:20:03.495Z,16.60
2019-01-26T22:22:36.510Z,16.60
2019-01-26T22:25:10.982Z,16.60
2019-01-26T22:27:43.764Z,16.60
2019-01-26T22:30:27.963Z,16.80
2019-01-26T22:32:59.591Z,16.70
2019-01-26T22:35:31.271Z,16.70
2019-01-26T22:38:02.811Z,16.60
2019-01-26T22:40:36.939Z,16.60
2019-01-26T22:43:08.526Z,16.70
2019-01-26T22:45:40.359Z,16.60
2019-01-26T22:48:11.880Z,16.80
2019-01-26T22:50:43.490Z,16.60
2019-01-26T22:53:14.988Z,16.50
2019-01-26T22:55:46.541Z,16.70
2019-01-26T22:58:18.060Z,16.60
2019-01-26T23:01:08.597Z,16.60
2019-01-26T23:04:08.050Z,16.50
2019-01-26T23:07:53.863Z,16.60
2019-01-26T23:11:10.242Z,16.60
2019-01-26T23:14:19.635Z,16.40
2019-01-26T23:18:05.196Z,16.60
2019-01-26T23:21:19.965Z,16.70
2019-01-26T23:24:47.222Z,16.60
2019-01-26T23:27:52.859Z,16.40
2019-01-26T23:31:16.539Z,16.40
2019-01-26T23:33:53.718Z,16.30
2019-01-26T23:36:25.255Z,16.30
2019-01-26T23:39:02.157Z,16.30
2019-01-26T23:41:30.114Z,16.10
2019-01-26T23:44:01.613Z,16.20
2019-01-26T23:46:33.111Z,16.30
2019-01-26T23:49:04.671Z,16.40
2019-01-26T23:51:36.150Z,16.50
2019-01-26T23:54:08.013Z,16.60
2019-01-26T23:56:39.486Z,16.50
2019-01-26T23:59:11.043Z,16.60
